sensor_id;sensor_type;location;lat;lon;timestamp;temperature;humidity
24664;DHT22;12791;50.992;13.788;2023-09-12T00:00:07;19.00;99.90
24664;DHT22;12791;50.992;13.788;2023-09-12T00:02:34;18.90;99.90
24664;DHT22;12791;50.992;13.788;2023-09-12T00:05:00;18.90;99.90
24664;DHT22;12791;50.992;13.788;2023-09-12T00:07:27;18.90;99.90
24664;DHT22;12791;50.992;13.788;2023-09-12T00:09:54;18.80;99.90
24664;DHT22;12791;50.992;13.788;2023-09-12T00:12:23;18.80;99.90
24664;DHT22;12791;50.992;13.788;2023-09-12T00:14:50;18.80;99.90
24664;DHT22;12791;50.992;13.788;2023-09-12T00:17:18;18.80;99.90
24664;DHT22;12791;50.992;13.788;2023-09-12T00:19:44;18.70;99.90
24664;DHT22;12791;50.992;13.788;2023-09-12T00:22:11;18.70;99.90
24664;DHT22;12791;50.992;13.788;2023-09-12T00:24:38;18.60;99.90
24664;DHT22;12791;50.992;13.788;2023-09-12T00:27:04;18.70;99.90
24664;DHT22;12791;50.992;13.788;2023-09-12T00:29:31;18.60;99.90
24664;DHT22;12791;50.992;13.788;2023-09-12T00:31:58;18.60;99.90
24664;DHT22;12791;50.992;13.788;2023-09-12T00:34:26;18.60;99.90
24664;DHT22;12791;50.992;13.788;2023-09-12T00:36:53;18.50;99.90
24664;DHT22;12791;50.992;13.788;2023-09-12T00:39:19;18.60;99.90
24664;DHT22;12791;50.992;13.788;2023-09-12T00:41:46;18.50;99.90
24664;DHT22;12791;50.992;13.788;2023-09-12T00:44:13;18.50;99.90
24664;DHT22;12791;50.992;13.788;2023-09-12T00:46:40;18.50;99.90
24664;DHT22;12791;50.992;13.788;2023-09-12T00:49:07;18.50;99.90
24664;DHT22;12791;50.992;13.788;2023-09-12T00:51:36;18.50;99.90
24664;DHT22;12791;50.992;13.788;2023-09-12T00:54:03;18.50;99.90
24664;DHT22;12791;50.992;13.788;2023-09-12T00:56:30;18.50;99.90
24664;DHT22;12791;50.992;13.788;2023-09-12T00:58:57;18.40;99.90
24664;DHT22;12791;50.992;13.788;2023-09-12T01:01:24;18.40;99.90
24664;DHT22;12791;50.992;13.788;2023-09-12T01:03:51;18.40;99.90
24664;DHT22;12791;50.992;13.788;2023-09-12T01:06:19;18.30;99.90
24664;DHT22;12791;50.992;13.788;2023-09-12T01:08:49;18.30;99.90
24664;DHT22;12791;50.992;13.788;2023-09-12T01:11:17;18.30;99.90
24664;DHT22;12791;50.992;13.788;2023-09-12T01:13:43;18.30;99.90
24664;DHT22;12791;50.992;13.788;2023-09-12T01:16:10;18.30;99.90
24664;DHT22;12791;50.992;13.788;2023-09-12T01:18:37;18.30;99.90
24664;DHT22;12791;50.992;13.788;2023-09-12T01:24:11;18.20;99.90
24664;DHT22;12791;50.992;13.788;2023-09-12T01:26:44;18.20;99.90
24664;DHT22;12791;50.992;13.788;2023-09-12T01:29:18;18.20;99.90
24664;DHT22;12791;50.992;13.788;2023-09-12T01:31:47;18.20;99.90
24664;DHT22;12791;50.992;13.788;2023-09-12T01:34:14;18.10;99.90
24664;DHT22;12791;50.992;13.788;2023-09-12T01:36:41;18.10;99.90
24664;DHT22;12791;50.992;13.788;2023-09-12T01:39:08;18.10;99.90
24664;DHT22;12791;50.992;13.788;2023-09-12T01:41:40;18.10;99.90
24664;DHT22;12791;50.992;13.788;2023-09-12T01:44:08;18.00;99.90
24664;DHT22;12791;50.992;13.788;2023-09-12T01:46:38;18.00;99.90
24664;DHT22;12791;50.992;13.788;2023-09-12T01:49:05;18.00;99.90
24664;DHT22;12791;50.992;13.788;2023-09-12T01:51:33;17.90;99.90
24664;DHT22;12791;50.992;13.788;2023-09-12T01:54:01;17.90;99.90
24664;DHT22;12791;50.992;13.788;2023-09-12T01:56:29;17.90;99.90
24664;DHT22;12791;50.992;13.788;2023-09-12T01:58:56;17.90;99.90
24664;DHT22;12791;50.992;13.788;2023-09-12T02:01:23;17.80;99.90
24664;DHT22;12791;50.992;13.788;2023-09-12T02:03:53;17.80;99.90
24664;DHT22;12791;50.992;13.788;2023-09-12T02:06:20;17.80;99.90
24664;DHT22;12791;50.992;13.788;2023-09-12T02:08:47;17.70;99.90
24664;DHT22;12791;50.992;13.788;2023-09-12T02:11:13;17.70;99.90
24664;DHT22;12791;50.992;13.788;2023-09-12T02:13:40;17.70;99.90
24664;DHT22;12791;50.992;13.788;2023-09-12T02:16:07;17.60;99.90
24664;DHT22;12791;50.992;13.788;2023-09-12T02:18:33;17.60;99.90
24664;DHT22;12791;50.992;13.788;2023-09-12T02:21:01;17.60;99.90
24664;DHT22;12791;50.992;13.788;2023-09-12T02:23:28;17.60;99.90
24664;DHT22;12791;50.992;13.788;2023-09-12T02:25:55;17.50;99.90
24664;DHT22;12791;50.992;13.788;2023-09-12T02:28:22;17.50;99.90
24664;DHT22;12791;50.992;13.788;2023-09-12T02:30:50;17.50;99.90
24664;DHT22;12791;50.992;13.788;2023-09-12T02:33:16;17.50;99.90
24664;DHT22;12791;50.992;13.788;2023-09-12T02:35:43;17.50;99.90
24664;DHT22;12791;50.992;13.788;2023-09-12T02:38:11;17.50;99.90
24664;DHT22;12791;50.992;13.788;2023-09-12T02:40:38;17.40;99.90
24664;DHT22;12791;50.992;13.788;2023-09-12T02:43:04;17.40;99.90
24664;DHT22;12791;50.992;13.788;2023-09-12T02:45:31;17.40;99.90
24664;DHT22;12791;50.992;13.788;2023-09-12T02:47:58;17.40;99.90
24664;DHT22;12791;50.992;13.788;2023-09-12T02:50:25;17.40;99.90
24664;DHT22;12791;50.992;13.788;2023-09-12T02:52:51;17.40;99.90
24664;DHT22;12791;50.992;13.788;2023-09-12T02:55:19;17.40;99.90
24664;DHT22;12791;50.992;13.788;2023-09-12T02:57:46;17.40;99.90
24664;DHT22;12791;50.992;13.788;2023-09-12T03:00:13;17.40;99.90
24664;DHT22;12791;50.992;13.788;2023-09-12T03:02:40;17.40;99.90
24664;DHT22;12791;50.992;13.788;2023-09-12T03:05:07;17.30;99.90
24664;DHT22;12791;50.992;13.788;2023-09-12T03:07:34;17.30;99.90
24664;DHT22;12791;50.992;13.788;2023-09-12T03:10:01;17.30;99.90
24664;DHT22;12791;50.992;13.788;2023-09-12T03:12:30;17.30;99.90
24664;DHT22;12791;50.992;13.788;2023-09-12T03:14:57;17.30;99.90
24664;DHT22;12791;50.992;13.788;2023-09-12T03:17:23;17.40;99.90
24664;DHT22;12791;50.992;13.788;2023-09-12T03:19:50;17.40;99.90
24664;DHT22;12791;50.992;13.788;2023-09-12T03:22:17;17.40;99.90
24664;DHT22;12791;50.992;13.788;2023-09-12T03:24:43;17.40;99.90
24664;DHT22;12791;50.992;13.788;2023-09-12T03:27:11;17.40;99.90
24664;DHT22;12791;50.992;13.788;2023-09-12T03:29:39;17.30;99.90
24664;DHT22;12791;50.992;13.788;2023-09-12T03:32:06;17.30;99.90
24664;DHT22;12791;50.992;13.788;2023-09-12T03:34:32;17.20;99.90
24664;DHT22;12791;50.992;13.788;2023-09-12T03:36:59;17.20;99.90
24664;DHT22;12791;50.992;13.788;2023-09-12T03:39:25;17.20;99.90
24664;DHT22;12791;50.992;13.788;2023-09-12T03:41:52;17.20;99.90
24664;DHT22;12791;50.992;13.788;2023-09-12T03:44:19;17.20;99.90
24664;DHT22;12791;50.992;13.788;2023-09-12T03:46:47;17.10;99.90
24664;DHT22;12791;50.992;13.788;2023-09-12T03:49:13;17.10;99.90
24664;DHT22;12791;50.992;13.788;2023-09-12T03:51:40;17.10;99.90
24664;DHT22;12791;50.992;13.788;2023-09-12T03:54:07;17.10;99.90
24664;DHT22;12791;50.992;13.788;2023-09-12T03:56:33;17.10;99.90
24664;DHT22;12791;50.992;13.788;2023-09-12T03:59:00;17.10;99.90
24664;DHT22;12791;50.992;13.788;2023-09-12T04:01:27;17.10;99.90
24664;DHT22;12791;50.992;13.788;2023-09-12T04:03:55;17.10;99.90
24664;DHT22;12791;50.992;13.788;2023-09-12T04:06:22;17.10;99.90
24664;DHT22;12791;50.992;13.788;2023-09-12T04:08:49;17.10;99.90
24664;DHT22;12791;50.992;13.788;2023-09-12T04:11:15;17.00;99.90
24664;DHT22;12791;50.992;13.788;2023-09-12T04:13:42;17.00;99.90
24664;DHT22;12791;50.992;13.788;2023-09-12T04:16:09;17.00;99.90
24664;DHT22;12791;50.992;13.788;2023-09-12T04:18:36;17.00;99.90
24664;DHT22;12791;50.992;13.788;2023-09-12T04:21:04;16.90;99.90
24664;DHT22;12791;50.992;13.788;2023-09-12T04:23:31;16.90;99.90
24664;DHT22;12791;50.992;13.788;2023-09-12T04:25:57;16.90;99.90
24664;DHT22;12791;50.992;13.788;2023-09-12T04:28:28;16.90;99.90
24664;DHT22;12791;50.992;13.788;2023-09-12T04:31:01;16.90;99.90
24664;DHT22;12791;50.992;13.788;2023-09-12T04:33:28;16.80;99.90
24664;DHT22;12791;50.992;13.788;2023-09-12T04:35:57;16.80;99.90
24664;DHT22;12791;50.992;13.788;2023-09-12T04:38:25;16.80;99.90
24664;DHT22;12791;50.992;13.788;2023-09-12T04:40:55;16.70;99.90
24664;DHT22;12791;50.992;13.788;2023-09-12T04:43:23;16.70;99.90
24664;DHT22;12791;50.992;13.788;2023-09-12T04:45:50;16.70;99.90
24664;DHT22;12791;50.992;13.788;2023-09-12T04:48:16;16.70;99.90
24664;DHT22;12791;50.992;13.788;2023-09-12T04:50:43;16.70;99.90
24664;DHT22;12791;50.992;13.788;2023-09-12T04:53:10;16.60;99.90
24664;DHT22;12791;50.992;13.788;2023-09-12T04:55:38;16.70;99.90
24664;DHT22;12791;50.992;13.788;2023-09-12T04:58:05;16.60;99.90
24664;DHT22;12791;50.992;13.788;2023-09-12T05:00:32;16.70;99.90
24664;DHT22;12791;50.992;13.788;2023-09-12T05:03:00;16.70;99.90
24664;DHT22;12791;50.992;13.788;2023-09-12T05:05:28;16.70;99.90
24664;DHT22;12791;50.992;13.788;2023-09-12T05:07:54;16.70;99.90
24664;DHT22;12791;50.992;13.788;2023-09-12T05:10:21;16.70;99.90
24664;DHT22;12791;50.992;13.788;2023-09-12T05:12:49;16.80;99.90
24664;DHT22;12791;50.992;13.788;2023-09-12T05:15:15;16.80;99.90
24664;DHT22;12791;50.992;13.788;2023-09-12T05:17:42;16.90;99.90
24664;DHT22;12791;50.992;13.788;2023-09-12T05:20:10;16.90;99.90
24664;DHT22;12791;50.992;13.788;2023-09-12T05:22:37;16.90;99.90
24664;DHT22;12791;50.992;13.788;2023-09-12T05:25:04;17.00;99.90
24664;DHT22;12791;50.992;13.788;2023-09-12T05:27:31;17.00;99.90
24664;DHT22;12791;50.992;13.788;2023-09-12T05:29:59;17.00;99.90
24664;DHT22;12791;50.992;13.788;2023-09-12T05:32:25;17.00;99.90
24664;DHT22;12791;50.992;13.788;2023-09-12T05:34:52;17.10;99.90
24664;DHT22;12791;50.992;13.788;2023-09-12T05:37:19;17.10;99.90
24664;DHT22;12791;50.992;13.788;2023-09-12T05:39:46;17.10;99.90
24664;DHT22;12791;50.992;13.788;2023-09-12T05:42:13;17.10;99.90
24664;DHT22;12791;50.992;13.788;2023-09-12T05:44:40;17.10;99.90
24664;DHT22;12791;50.992;13.788;2023-09-12T05:47:09;17.20;99.90
24664;DHT22;12791;50.992;13.788;2023-09-12T05:49:35;17.20;99.90
24664;DHT22;12791;50.992;13.788;2023-09-12T05:52:02;17.30;99.90
24664;DHT22;12791;50.992;13.788;2023-09-12T05:54:29;17.30;99.90
24664;DHT22;12791;50.992;13.788;2023-09-12T05:56:56;17.40;99.90
24664;DHT22;12791;50.992;13.788;2023-09-12T05:59:23;17.40;99.90
24664;DHT22;12791;50.992;13.788;2023-09-12T06:01:49;17.50;99.90
24664;DHT22;12791;50.992;13.788;2023-09-12T06:04:19;17.50;99.90
24664;DHT22;12791;50.992;13.788;2023-09-12T06:06:46;17.50;99.90
24664;DHT22;12791;50.992;13.788;2023-09-12T06:09:12;17.60;99.90
24664;DHT22;12791;50.992;13.788;2023-09-12T06:11:39;17.70;99.90
24664;DHT22;12791;50.992;13.788;2023-09-12T06:14:06;17.70;99.90
24664;DHT22;12791;50.992;13.788;2023-09-12T06:16:32;17.80;99.90
24664;DHT22;12791;50.992;13.788;2023-09-12T06:18:59;17.90;99.90
24664;DHT22;12791;50.992;13.788;2023-09-12T06:21:27;18.00;99.90
24664;DHT22;12791;50.992;13.788;2023-09-12T06:24:09;18.10;99.90
24664;DHT22;12791;50.992;13.788;2023-09-12T06:26:36;18.20;99.90
24664;DHT22;12791;50.992;13.788;2023-09-12T06:29:03;18.30;99.90
24664;DHT22;12791;50.992;13.788;2023-09-12T06:31:29;18.40;99.90
24664;DHT22;12791;50.992;13.788;2023-09-12T06:33:56;18.40;99.90
24664;DHT22;12791;50.992;13.788;2023-09-12T06:36:23;18.50;99.90
24664;DHT22;12791;50.992;13.788;2023-09-12T06:38:52;18.60;99.90
24664;DHT22;12791;50.992;13.788;2023-09-12T06:41:19;18.70;99.90
24664;DHT22;12791;50.992;13.788;2023-09-12T06:43:46;18.80;99.90
24664;DHT22;12791;50.992;13.788;2023-09-12T06:46:13;18.80;99.90
24664;DHT22;12791;50.992;13.788;2023-09-12T06:48:43;18.90;99.90
24664;DHT22;12791;50.992;13.788;2023-09-12T06:51:09;19.00;99.90
24664;DHT22;12791;50.992;13.788;2023-09-12T06:53:36;19.00;99.90
24664;DHT22;12791;50.992;13.788;2023-09-12T06:56:04;19.10;99.90
24664;DHT22;12791;50.992;13.788;2023-09-12T06:58:31;19.20;99.90
24664;DHT22;12791;50.992;13.788;2023-09-12T07:01:01;19.20;99.90
24664;DHT22;12791;50.992;13.788;2023-09-12T07:03:29;19.30;99.90
24664;DHT22;12791;50.992;13.788;2023-09-12T07:05:56;19.40;99.90
24664;DHT22;12791;50.992;13.788;2023-09-12T07:08:23;19.40;99.90
24664;DHT22;12791;50.992;13.788;2023-09-12T07:10:49;19.50;99.90
24664;DHT22;12791;50.992;13.788;2023-09-12T07:13:17;19.60;99.90
24664;DHT22;12791;50.992;13.788;2023-09-12T07:15:44;19.60;99.90
24664;DHT22;12791;50.992;13.788;2023-09-12T07:18:11;19.70;99.90
24664;DHT22;12791;50.992;13.788;2023-09-12T07:20:37;19.80;99.90
24664;DHT22;12791;50.992;13.788;2023-09-12T07:23:04;19.80;99.90
24664;DHT22;12791;50.992;13.788;2023-09-12T07:25:30;19.90;99.90
24664;DHT22;12791;50.992;13.788;2023-09-12T07:28:01;20.00;99.90
24664;DHT22;12791;50.992;13.788;2023-09-12T07:30:30;20.10;99.90
24664;DHT22;12791;50.992;13.788;2023-09-12T07:32:57;20.10;99.90
24664;DHT22;12791;50.992;13.788;2023-09-12T07:35:24;20.20;99.90
24664;DHT22;12791;50.992;13.788;2023-09-12T07:37:50;20.30;99.90
24664;DHT22;12791;50.992;13.788;2023-09-12T07:40:17;20.30;99.90
24664;DHT22;12791;50.992;13.788;2023-09-12T07:42:44;20.40;99.90
24664;DHT22;12791;50.992;13.788;2023-09-12T07:45:10;20.40;99.90
24664;DHT22;12791;50.992;13.788;2023-09-12T07:47:40;20.50;99.90
24664;DHT22;12791;50.992;13.788;2023-09-12T07:50:07;20.60;99.90
24664;DHT22;12791;50.992;13.788;2023-09-12T07:52:34;20.60;99.90
24664;DHT22;12791;50.992;13.788;2023-09-12T07:55:01;20.70;99.90
24664;DHT22;12791;50.992;13.788;2023-09-12T07:57:28;20.70;99.90
24664;DHT22;12791;50.992;13.788;2023-09-12T07:59:55;20.80;99.90
24664;DHT22;12791;50.992;13.788;2023-09-12T08:02:22;20.90;99.90
24664;DHT22;12791;50.992;13.788;2023-09-12T08:04:50;21.00;99.90
24664;DHT22;12791;50.992;13.788;2023-09-12T08:07:19;21.10;99.90
24664;DHT22;12791;50.992;13.788;2023-09-12T08:09:50;21.10;99.90
24664;DHT22;12791;50.992;13.788;2023-09-12T08:12:17;21.20;99.90
24664;DHT22;12791;50.992;13.788;2023-09-12T08:14:44;21.30;99.90
24664;DHT22;12791;50.992;13.788;2023-09-12T08:17:11;21.30;99.90
24664;DHT22;12791;50.992;13.788;2023-09-12T08:19:38;21.40;99.90
24664;DHT22;12791;50.992;13.788;2023-09-12T08:22:07;21.40;99.90
24664;DHT22;12791;50.992;13.788;2023-09-12T08:24:34;21.40;99.90
24664;DHT22;12791;50.992;13.788;2023-09-12T08:27:02;21.50;99.90
24664;DHT22;12791;50.992;13.788;2023-09-12T08:29:29;21.60;99.90
24664;DHT22;12791;50.992;13.788;2023-09-12T08:31:56;21.70;99.90
24664;DHT22;12791;50.992;13.788;2023-09-12T08:34:23;21.70;99.90
24664;DHT22;12791;50.992;13.788;2023-09-12T08:36:50;21.80;99.90
24664;DHT22;12791;50.992;13.788;2023-09-12T08:39:23;21.80;99.90
24664;DHT22;12791;50.992;13.788;2023-09-12T08:41:50;21.90;99.90
24664;DHT22;12791;50.992;13.788;2023-09-12T08:44:17;22.00;99.90
24664;DHT22;12791;50.992;13.788;2023-09-12T08:46:45;22.10;99.90
24664;DHT22;12791;50.992;13.788;2023-09-12T08:49:12;22.10;99.90
24664;DHT22;12791;50.992;13.788;2023-09-12T08:51:39;22.10;99.90
24664;DHT22;12791;50.992;13.788;2023-09-12T08:54:06;22.20;98.60
24664;DHT22;12791;50.992;13.788;2023-09-12T08:56:39;22.20;97.70
24664;DHT22;12791;50.992;13.788;2023-09-12T08:59:06;22.30;95.20
24664;DHT22;12791;50.992;13.788;2023-09-12T09:01:34;22.40;91.10
24664;DHT22;12791;50.992;13.788;2023-09-12T09:04:02;22.50;86.50
24664;DHT22;12791;50.992;13.788;2023-09-12T09:06:32;22.60;86.90
24664;DHT22;12791;50.992;13.788;2023-09-12T09:09:04;22.60;85.10
24664;DHT22;12791;50.992;13.788;2023-09-12T09:11:31;22.70;84.10
24664;DHT22;12791;50.992;13.788;2023-09-12T09:13:59;22.80;84.70
24664;DHT22;12791;50.992;13.788;2023-09-12T09:16:25;22.80;83.90
24664;DHT22;12791;50.992;13.788;2023-09-12T09:18:53;22.90;82.80
24664;DHT22;12791;50.992;13.788;2023-09-12T09:21:21;23.00;81.00
24664;DHT22;12791;50.992;13.788;2023-09-12T09:23:50;23.00;80.40
24664;DHT22;12791;50.992;13.788;2023-09-12T09:26:17;23.10;80.70
24664;DHT22;12791;50.992;13.788;2023-09-12T09:28:44;23.20;79.80
24664;DHT22;12791;50.992;13.788;2023-09-12T09:31:13;23.20;78.80
24664;DHT22;12791;50.992;13.788;2023-09-12T09:33:40;23.30;78.80
24664;DHT22;12791;50.992;13.788;2023-09-12T09:36:11;23.30;77.20
24664;DHT22;12791;50.992;13.788;2023-09-12T09:38:37;23.40;72.90
24664;DHT22;12791;50.992;13.788;2023-09-12T09:41:06;23.40;72.40
24664;DHT22;12791;50.992;13.788;2023-09-12T09:43:32;23.50;72.30
24664;DHT22;12791;50.992;13.788;2023-09-12T09:45:59;23.50;72.00
24664;DHT22;12791;50.992;13.788;2023-09-12T09:48:27;23.60;70.10
24664;DHT22;12791;50.992;13.788;2023-09-12T09:51:00;23.70;70.40
24664;DHT22;12791;50.992;13.788;2023-09-12T09:53:28;23.80;68.90
24664;DHT22;12791;50.992;13.788;2023-09-12T09:56:07;23.80;69.00
24664;DHT22;12791;50.992;13.788;2023-09-12T09:58:34;23.90;67.60
24664;DHT22;12791;50.992;13.788;2023-09-12T10:01:01;23.90;67.20
24664;DHT22;12791;50.992;13.788;2023-09-12T10:03:32;24.00;65.60
24664;DHT22;12791;50.992;13.788;2023-09-12T10:06:04;24.00;65.30
24664;DHT22;12791;50.992;13.788;2023-09-12T10:08:32;24.10;65.00
24664;DHT22;12791;50.992;13.788;2023-09-12T10:11:01;24.10;63.10
24664;DHT22;12791;50.992;13.788;2023-09-12T10:13:30;24.20;63.00
24664;DHT22;12791;50.992;13.788;2023-09-12T10:15:59;24.20;62.60
24664;DHT22;12791;50.992;13.788;2023-09-12T10:18:31;24.20;62.00
24664;DHT22;12791;50.992;13.788;2023-09-12T10:21:05;24.20;61.80
24664;DHT22;12791;50.992;13.788;2023-09-12T10:23:37;24.20;60.80
24664;DHT22;12791;50.992;13.788;2023-09-12T10:26:09;24.20;60.30
24664;DHT22;12791;50.992;13.788;2023-09-12T10:28:37;24.30;60.40
24664;DHT22;12791;50.992;13.788;2023-09-12T10:31:05;24.30;59.40
24664;DHT22;12791;50.992;13.788;2023-09-12T10:33:35;24.40;57.00
24664;DHT22;12791;50.992;13.788;2023-09-12T10:36:03;24.60;56.40
24664;DHT22;12791;50.992;13.788;2023-09-12T10:38:30;24.60;55.80
24664;DHT22;12791;50.992;13.788;2023-09-12T10:41:00;24.70;56.00
24664;DHT22;12791;50.992;13.788;2023-09-12T10:43:28;24.70;56.30
24664;DHT22;12791;50.992;13.788;2023-09-12T10:46:01;24.80;56.20
24664;DHT22;12791;50.992;13.788;2023-09-12T10:48:29;24.80;56.90
24664;DHT22;12791;50.992;13.788;2023-09-12T10:50:57;24.90;56.80
24664;DHT22;12791;50.992;13.788;2023-09-12T10:53:26;24.90;56.50
24664;DHT22;12791;50.992;13.788;2023-09-12T10:56:00;25.00;56.70
24664;DHT22;12791;50.992;13.788;2023-09-12T10:58:28;25.10;55.60
24664;DHT22;12791;50.992;13.788;2023-09-12T11:01:23;25.20;57.00
24664;DHT22;12791;50.992;13.788;2023-09-12T11:03:50;25.30;56.20
24664;DHT22;12791;50.992;13.788;2023-09-12T11:06:28;25.30;56.30
24664;DHT22;12791;50.992;13.788;2023-09-12T11:09:16;25.20;56.60
24664;DHT22;12791;50.992;13.788;2023-09-12T11:11:45;25.20;56.60
24664;DHT22;12791;50.992;13.788;2023-09-12T11:14:13;25.20;56.50
24664;DHT22;12791;50.992;13.788;2023-09-12T11:16:41;25.20;57.60
24664;DHT22;12791;50.992;13.788;2023-09-12T11:19:18;25.30;56.10
24664;DHT22;12791;50.992;13.788;2023-09-12T11:21:50;25.40;55.10
24664;DHT22;12791;50.992;13.788;2023-09-12T11:24:18;25.50;54.70
24664;DHT22;12791;50.992;13.788;2023-09-12T11:26:56;25.60;54.10
24664;DHT22;12791;50.992;13.788;2023-09-12T11:29:27;25.60;54.50
24664;DHT22;12791;50.992;13.788;2023-09-12T11:31:55;25.60;54.20
24664;DHT22;12791;50.992;13.788;2023-09-12T11:34:25;25.60;54.60
24664;DHT22;12791;50.992;13.788;2023-09-12T11:36:56;25.60;55.00
24664;DHT22;12791;50.992;13.788;2023-09-12T11:39:23;25.60;55.10
24664;DHT22;12791;50.992;13.788;2023-09-12T11:41:51;25.70;53.00
24664;DHT22;12791;50.992;13.788;2023-09-12T11:44:19;25.80;52.90
24664;DHT22;12791;50.992;13.788;2023-09-12T11:46:48;25.80;53.00
24664;DHT22;12791;50.992;13.788;2023-09-12T11:49:16;25.80;53.50
24664;DHT22;12791;50.992;13.788;2023-09-12T11:51:47;25.80;53.50
24664;DHT22;12791;50.992;13.788;2023-09-12T11:54:18;25.80;53.20
24664;DHT22;12791;50.992;13.788;2023-09-12T11:56:46;25.90;53.20
24664;DHT22;12791;50.992;13.788;2023-09-12T11:59:13;26.00;52.60
24664;DHT22;12791;50.992;13.788;2023-09-12T12:01:40;26.10;52.90
24664;DHT22;12791;50.992;13.788;2023-09-12T12:04:09;26.20;52.50
24664;DHT22;12791;50.992;13.788;2023-09-12T12:06:36;26.20;51.70
24664;DHT22;12791;50.992;13.788;2023-09-12T12:09:03;26.30;52.10
24664;DHT22;12791;50.992;13.788;2023-09-12T12:11:31;26.30;51.90
24664;DHT22;12791;50.992;13.788;2023-09-12T12:13:58;26.30;50.80
24664;DHT22;12791;50.992;13.788;2023-09-12T12:16:25;26.30;52.00
24664;DHT22;12791;50.992;13.788;2023-09-12T12:18:52;26.40;52.70
24664;DHT22;12791;50.992;13.788;2023-09-12T12:21:21;26.40;52.60
24664;DHT22;12791;50.992;13.788;2023-09-12T12:23:57;26.40;52.70
24664;DHT22;12791;50.992;13.788;2023-09-12T12:26:24;26.40;52.20
24664;DHT22;12791;50.992;13.788;2023-09-12T12:28:52;26.40;51.70
24664;DHT22;12791;50.992;13.788;2023-09-12T12:31:19;26.40;51.90
24664;DHT22;12791;50.992;13.788;2023-09-12T12:33:51;26.40;52.20
24664;DHT22;12791;50.992;13.788;2023-09-12T12:36:19;26.30;52.30
24664;DHT22;12791;50.992;13.788;2023-09-12T12:38:47;26.30;52.70
24664;DHT22;12791;50.992;13.788;2023-09-12T12:41:14;26.30;52.00
24664;DHT22;12791;50.992;13.788;2023-09-12T12:43:42;26.30;52.20
24664;DHT22;12791;50.992;13.788;2023-09-12T12:46:12;26.30;52.70
24664;DHT22;12791;50.992;13.788;2023-09-12T12:48:42;26.30;53.00
24664;DHT22;12791;50.992;13.788;2023-09-12T12:51:15;26.30;52.30
24664;DHT22;12791;50.992;13.788;2023-09-12T12:53:44;26.30;52.40
24664;DHT22;12791;50.992;13.788;2023-09-12T12:56:13;26.30;52.60
24664;DHT22;12791;50.992;13.788;2023-09-12T12:58:46;26.30;52.40
24664;DHT22;12791;50.992;13.788;2023-09-12T13:01:14;26.30;51.60
24664;DHT22;12791;50.992;13.788;2023-09-12T13:03:41;26.30;51.80
24664;DHT22;12791;50.992;13.788;2023-09-12T13:06:08;26.30;52.10
24664;DHT22;12791;50.992;13.788;2023-09-12T13:08:39;26.30;52.10
24664;DHT22;12791;50.992;13.788;2023-09-12T13:11:06;26.30;52.40
24664;DHT22;12791;50.992;13.788;2023-09-12T13:13:33;26.40;52.50
24664;DHT22;12791;50.992;13.788;2023-09-12T13:16:00;26.50;53.00
24664;DHT22;12791;50.992;13.788;2023-09-12T13:18:28;26.50;52.50
24664;DHT22;12791;50.992;13.788;2023-09-12T13:20:55;26.50;52.40
24664;DHT22;12791;50.992;13.788;2023-09-12T13:23:22;26.50;50.90
24664;DHT22;12791;50.992;13.788;2023-09-12T13:25:49;26.60;51.10
24664;DHT22;12791;50.992;13.788;2023-09-12T13:28:16;26.60;50.10
24664;DHT22;12791;50.992;13.788;2023-09-12T13:30:43;26.70;51.00
24664;DHT22;12791;50.992;13.788;2023-09-12T13:33:10;26.70;50.80
24664;DHT22;12791;50.992;13.788;2023-09-12T13:35:38;26.70;51.60
24664;DHT22;12791;50.992;13.788;2023-09-12T13:38:05;26.70;50.10
24664;DHT22;12791;50.992;13.788;2023-09-12T13:40:35;26.80;51.00
24664;DHT22;12791;50.992;13.788;2023-09-12T13:43:03;26.80;51.20
24664;DHT22;12791;50.992;13.788;2023-09-12T13:45:29;26.90;51.20
24664;DHT22;12791;50.992;13.788;2023-09-12T13:47:56;26.90;51.20
24664;DHT22;12791;50.992;13.788;2023-09-12T13:50:27;26.90;51.10
24664;DHT22;12791;50.992;13.788;2023-09-12T13:52:56;26.80;50.30
24664;DHT22;12791;50.992;13.788;2023-09-12T13:55:23;26.90;50.30
24664;DHT22;12791;50.992;13.788;2023-09-12T13:57:49;26.90;50.80
24664;DHT22;12791;50.992;13.788;2023-09-12T14:00:16;26.90;50.60
24664;DHT22;12791;50.992;13.788;2023-09-12T14:02:43;26.90;49.50
24664;DHT22;12791;50.992;13.788;2023-09-12T14:05:11;26.90;50.00
24664;DHT22;12791;50.992;13.788;2023-09-12T14:07:38;26.90;50.00
24664;DHT22;12791;50.992;13.788;2023-09-12T14:10:07;26.90;50.00
24664;DHT22;12791;50.992;13.788;2023-09-12T14:12:34;26.90;49.90
24664;DHT22;12791;50.992;13.788;2023-09-12T14:15:00;26.90;50.20
24664;DHT22;12791;50.992;13.788;2023-09-12T14:17:28;26.90;49.50
24664;DHT22;12791;50.992;13.788;2023-09-12T14:19:55;26.90;50.10
24664;DHT22;12791;50.992;13.788;2023-09-12T14:22:22;27.00;49.70
24664;DHT22;12791;50.992;13.788;2023-09-12T14:24:48;27.10;50.40
24664;DHT22;12791;50.992;13.788;2023-09-12T14:27:16;27.00;50.30
24664;DHT22;12791;50.992;13.788;2023-09-12T14:29:43;27.00;50.40
24664;DHT22;12791;50.992;13.788;2023-09-12T14:32:11;27.10;50.10
24664;DHT22;12791;50.992;13.788;2023-09-12T14:34:38;27.10;50.10
24664;DHT22;12791;50.992;13.788;2023-09-12T14:37:04;27.10;49.80
24664;DHT22;12791;50.992;13.788;2023-09-12T14:39:31;27.20;50.40
24664;DHT22;12791;50.992;13.788;2023-09-12T14:41:58;27.20;49.60
24664;DHT22;12791;50.992;13.788;2023-09-12T14:44:27;27.20;49.40
24664;DHT22;12791;50.992;13.788;2023-09-12T14:46:53;27.20;49.60
24664;DHT22;12791;50.992;13.788;2023-09-12T14:49:20;27.20;49.70
24664;DHT22;12791;50.992;13.788;2023-09-12T14:51:47;27.20;47.70
24664;DHT22;12791;50.992;13.788;2023-09-12T14:54:14;27.20;47.60
24664;DHT22;12791;50.992;13.788;2023-09-12T14:56:40;27.30;48.30
24664;DHT22;12791;50.992;13.788;2023-09-12T14:59:08;27.30;47.70
24664;DHT22;12791;50.992;13.788;2023-09-12T15:01:37;27.30;47.50
24664;DHT22;12791;50.992;13.788;2023-09-12T15:04:03;27.20;48.10
24664;DHT22;12791;50.992;13.788;2023-09-12T15:06:30;27.20;47.20
24664;DHT22;12791;50.992;13.788;2023-09-12T15:08:58;27.20;47.40
24664;DHT22;12791;50.992;13.788;2023-09-12T15:11:25;27.10;47.60
24664;DHT22;12791;50.992;13.788;2023-09-12T15:13:52;27.10;48.40
24664;DHT22;12791;50.992;13.788;2023-09-12T15:16:18;27.00;49.60
24664;DHT22;12791;50.992;13.788;2023-09-12T15:18:46;27.00;50.30
24664;DHT22;12791;50.992;13.788;2023-09-12T15:21:13;27.00;48.20